createdAt,value
2018-09-17T00:00:36.407Z,965.31
2018-09-17T00:01:36.388Z,965.28
2018-09-17T00:02:36.369Z,965.30
2018-09-17T00:03:36.348Z,965.31
2018-09-17T00:04:36.331Z,965.31
2018-09-17T00:05:36.309Z,965.28
2018-09-17T00:06:36.294Z,965.32
2018-09-17T00:07:36.270Z,965.29
2018-09-17T00:08:36.250Z,965.27
2018-09-17T00:09:36.229Z,965.30
2018-09-17T00:10:36.211Z,965.30
2018-09-17T00:11:36.191Z,965.31
2018-09-17T00:12:36.172Z,965.32
2018-09-17T00:13:36.149Z,965.26
2018-09-17T00:14:36.882Z,965.27
2018-09-17T00:15:36.113Z,965.28
2018-09-17T00:16:36.091Z,965.34
2018-09-17T00:17:36.070Z,965.29
2018-09-17T00:18:36.054Z,965.30
2018-09-17T00:19:36.032Z,965.26
2018-09-17T00:20:36.011Z,965.27
2018-09-17T00:21:35.992Z,965.24
2018-09-17T00:22:35.970Z,965.26
2018-09-17T00:23:35.952Z,965.25
2018-09-17T00:24:35.932Z,965.26
2018-09-17T00:25:35.911Z,965.24
2018-09-17T00:26:35.892Z,965.24
2018-09-17T00:27:35.872Z,965.25
2018-09-17T00:28:35.853Z,965.22
2018-09-17T00:29:35.833Z,965.22
2018-09-17T00:30:36.565Z,965.22
2018-09-17T00:31:35.791Z,965.19
2018-09-17T00:32:35.772Z,965.20
2018-09-17T00:33:35.751Z,965.19
2018-09-17T00:34:35.732Z,965.16
2018-09-17T00:35:35.712Z,965.14
2018-09-17T00:36:35.691Z,965.10
2018-09-17T00:37:35.671Z,965.07
2018-09-17T00:38:35.651Z,965.09
2018-09-17T00:39:35.631Z,965.07
2018-09-17T00:40:35.613Z,965.07
2018-09-17T00:41:35.792Z,965.06
2018-09-17T00:42:35.571Z,965.11
2018-09-17T00:43:35.551Z,965.10
2018-09-17T00:44:35.532Z,965.10
2018-09-17T00:45:35.511Z,965.14
2018-09-17T00:46:35.490Z,965.15
2018-09-17T00:47:35.472Z,965.14
2018-09-17T00:48:35.452Z,965.13
2018-09-17T00:49:35.430Z,965.16
2018-09-17T00:50:35.413Z,965.15
2018-09-17T00:51:35.392Z,965.13
2018-09-17T00:52:35.370Z,965.14
2018-09-17T00:53:35.350Z,965.12
2018-09-17T00:54:35.329Z,965.14
2018-09-17T00:55:35.311Z,965.15
2018-09-17T00:56:35.290Z,965.16
2018-09-17T00:57:35.269Z,965.10
2018-09-17T00:58:35.251Z,965.14
2018-09-17T00:59:35.429Z,965.13
2018-09-17T01:00:35.209Z,965.14
2018-09-17T01:01:35.189Z,965.11
2018-09-17T01:02:35.169Z,965.14
2018-09-17T01:03:35.148Z,965.09
2018-09-17T01:04:35.132Z,965.10
2018-09-17T01:05:35.111Z,965.11
2018-09-17T01:06:35.092Z,965.13
2018-09-17T01:07:35.069Z,965.12
2018-09-17T01:08:35.051Z,965.13
2018-09-17T01:09:35.028Z,965.14
2018-09-17T01:10:35.047Z,965.11
2018-09-17T01:11:34.988Z,965.11
2018-09-17T01:12:34.969Z,965.10
2018-09-17T01:13:34.948Z,965.12
2018-09-17T01:14:34.928Z,965.13
2018-09-17T01:15:34.908Z,965.12
2018-09-17T01:16:34.887Z,965.13
2018-09-17T01:17:34.867Z,965.10
2018-09-17T01:18:34.847Z,965.14
2018-09-17T01:19:34.827Z,965.13
2018-09-17T01:20:34.810Z,965.11
2018-09-17T01:21:34.789Z,965.11
2018-09-17T01:22:34.766Z,965.11
2018-09-17T01:23:34.746Z,965.14
2018-09-17T01:24:34.728Z,965.11
2018-09-17T01:25:34.706Z,965.10
2018-09-17T01:26:34.686Z,965.10
2018-09-17T01:27:34.665Z,965.05
2018-09-17T01:28:36.898Z,965.10
2018-09-17T01:29:34.625Z,965.07
2018-09-17T01:30:34.672Z,965.08
2018-09-17T01:31:34.591Z,965.05
2018-09-17T01:32:34.567Z,965.05
2018-09-17T01:33:34.552Z,965.08
2018-09-17T01:34:34.539Z,965.07
2018-09-17T01:35:34.505Z,965.04
2018-09-17T01:36:34.488Z,965.07
2018-09-17T01:37:34.464Z,965.08
2018-09-17T01:38:34.444Z,965.05
2018-09-17T01:39:34.425Z,965.08
2018-09-17T01:40:34.405Z,965.05
2018-09-17T01:41:34.393Z,965.03
2018-09-17T01:42:34.364Z,965.03
2018-09-17T01:43:34.343Z,965.04
2018-09-17T01:44:34.323Z,965.01
2018-09-17T01:45:34.302Z,965.00
2018-09-17T01:46:34.282Z,965.02
2018-09-17T01:47:34.262Z,965.03
2018-09-17T01:48:34.242Z,965.04
2018-09-17T01:49:34.225Z,965.01
2018-09-17T01:50:34.202Z,965.01
2018-09-17T01:51:34.182Z,964.99
2018-09-17T01:52:34.161Z,965.02
2018-09-17T01:53:34.140Z,965.04
2018-09-17T01:54:34.125Z,965.03
2018-09-17T01:55:34.101Z,965.04
2018-09-17T01:56:34.084Z,965.06
2018-09-17T01:57:34.059Z,965.01
2018-09-17T01:58:34.038Z,965.01
2018-09-17T01:59:34.018Z,964.98
2018-09-17T02:00:33.998Z,965.02
2018-09-17T02:01:33.979Z,964.97
2018-09-17T02:02:33.958Z,964.98
2018-09-17T02:03:33.940Z,964.96
2018-09-17T02:04:33.917Z,964.93
2018-09-17T02:05:33.898Z,964.91
2018-09-17T02:06:33.876Z,964.92
2018-09-17T02:07:33.857Z,964.94
2018-09-17T02:08:33.889Z,964.90
2018-09-17T02:09:33.882Z,964.90
2018-09-17T02:10:33.795Z,964.92
2018-09-17T02:11:33.802Z,964.95
2018-09-17T02:12:33.755Z,964.93
2018-09-17T02:13:33.734Z,964.90
2018-09-17T02:14:33.716Z,964.89
2018-09-17T02:15:33.693Z,964.87
2018-09-17T02:16:33.673Z,964.88
2018-09-17T02:17:33.653Z,964.90
2018-09-17T02:18:33.634Z,964.91
2018-09-17T02:19:33.613Z,964.89
2018-09-17T02:20:33.592Z,964.94
2018-09-17T02:21:33.570Z,964.95
2018-09-17T02:22:33.551Z,964.92
2018-09-17T02:23:33.529Z,964.94
2018-09-17T02:24:33.511Z,964.95
2018-09-17T02:25:33.489Z,964.98
2018-09-17T02:26:33.470Z,964.96
2018-09-17T02:27:33.449Z,964.97
2018-09-17T02:28:33.428Z,964.98
2018-09-17T02:29:33.407Z,964.98
2018-09-17T02:30:33.388Z,964.98
2018-09-17T02:31:33.368Z,964.97
2018-09-17T02:32:33.349Z,964.95
2018-09-17T02:33:33.330Z,964.96
2018-09-17T02:34:33.305Z,964.94
2018-09-17T02:35:33.285Z,964.94
2018-09-17T02:36:33.265Z,964.96
2018-09-17T02:37:33.246Z,964.96
2018-09-17T02:38:33.224Z,964.96
2018-09-17T02:39:33.205Z,964.92
2018-09-17T02:40:33.184Z,964.96
2018-09-17T02:41:33.162Z,964.94
2018-09-17T02:42:33.142Z,964.96
2018-09-17T02:43:33.127Z,964.98
2018-09-17T02:44:33.102Z,964.98
2018-09-17T02:45:33.082Z,964.96
2018-09-17T02:46:33.060Z,964.94
2018-09-17T02:47:33.041Z,964.94
2018-09-17T02:48:33.020Z,964.94
2018-09-17T02:49:32.999Z,964.94
2018-09-17T02:50:32.978Z,965.00
2018-09-17T02:51:32.958Z,965.02
2018-09-17T02:52:32.938Z,964.95
2018-09-17T02:53:33.033Z,964.96
2018-09-17T02:54:32.896Z,965.00
2018-09-17T02:55:32.876Z,964.99
2018-09-17T02:56:32.857Z,965.00
2018-09-17T02:57:32.834Z,965.00
2018-09-17T02:58:32.817Z,965.00
2018-09-17T02:59:32.795Z,964.97
2018-09-17T03:00:32.774Z,965.01
2018-09-17T03:01:32.753Z,964.98
2018-09-17T03:02:32.733Z,964.99
2018-09-17T03:03:32.714Z,964.97
2018-09-17T03:04:32.692Z,964.99
2018-09-17T03:05:32.672Z,965.04
2018-09-17T03:06:32.651Z,965.03
2018-09-17T03:07:32.630Z,965.04
2018-09-17T03:08:32.615Z,965.08
2018-09-17T03:09:32.588Z,965.04
2018-09-17T03:10:32.568Z,965.05
2018-09-17T03:11:32.549Z,965.04
2018-09-17T03:12:32.527Z,965.03
2018-09-17T03:13:32.514Z,965.02
2018-09-17T03:14:32.485Z,965.04
2018-09-17T03:15:32.465Z,965.06
2018-09-17T03:16:32.444Z,965.08
2018-09-17T03:17:32.423Z,965.12
2018-09-17T03:18:32.404Z,965.11
2018-09-17T03:19:32.383Z,965.11
2018-09-17T03:20:32.363Z,965.14
2018-09-17T03:21:32.342Z,965.14
2018-09-17T03:22:32.320Z,965.14
2018-09-17T03:23:32.301Z,965.13
2018-09-17T03:24:32.373Z,965.14
2018-09-17T03:25:32.258Z,965.20
2018-09-17T03:26:32.237Z,965.18
2018-09-17T03:27:32.217Z,965.20
2018-09-17T03:28:32.196Z,965.23
2018-09-17T03:29:32.174Z,965.21
2018-09-17T03:30:32.165Z,965.25
2018-09-17T03:31:32.134Z,965.26
2018-09-17T03:32:32.113Z,965.26
2018-09-17T03:33:32.091Z,965.29
2018-09-17T03:34:32.071Z,965.27
2018-09-17T03:35:32.051Z,965.28
2018-09-17T03:36:32.031Z,965.28
2018-09-17T03:37:32.009Z,965.30
2018-09-17T03:38:31.988Z,965.29
2018-09-17T03:39:31.970Z,965.28
2018-09-17T03:40:32.699Z,965.28
2018-09-17T03:41:31.926Z,965.30
2018-09-17T03:42:31.905Z,965.31
2018-09-17T03:43:31.889Z,965.33
2018-09-17T03:44:31.867Z,965.32
2018-09-17T03:45:31.843Z,965.30
2018-09-17T03:46:31.848Z,965.34
2018-09-17T03:47:31.802Z,965.37
2018-09-17T03:48:31.782Z,965.41
2018-09-17T03:49:31.760Z,965.36
2018-09-17T03:50:31.739Z,965.34
2018-09-17T03:51:31.718Z,965.40
2018-09-17T03:52:31.700Z,965.41
2018-09-17T03:53:31.676Z,965.38
2018-09-17T03:54:31.658Z,965.39
2018-09-17T03:55:31.635Z,965.39
2018-09-17T03:56:31.616Z,965.42
2018-09-17T03:57:31.594Z,965.40
2018-09-17T03:58:31.574Z,965.39
2018-09-17T03:59:31.554Z,965.40
2018-09-17T04:00:31.533Z,965.36
2018-09-17T04:01:31.510Z,965.37
2018-09-17T04:02:31.490Z,965.36
2018-09-17T04:03:31.470Z,965.35
2018-09-17T04:04:31.450Z,965.40
2018-09-17T04:05:31.428Z,965.41
2018-09-17T04:06:31.406Z,965.42
2018-09-17T04:07:31.386Z,965.44
2018-09-17T04:08:31.366Z,965.48
2018-09-17T04:09:31.346Z,965.46
2018-09-17T04:10:31.323Z,965.48
2018-09-17T04:11:31.303Z,965.47
2018-09-17T04:12:31.282Z,965.43
2018-09-17T04:13:31.261Z,965.36
2018-09-17T04:14:31.240Z,965.38
2018-09-17T04:15:31.220Z,965.35
2018-09-17T04:16:31.200Z,965.37
2018-09-17T04:17:31.177Z,965.38
2018-09-17T04:18:31.161Z,965.37
2018-09-17T04:19:31.137Z,965.39
2018-09-17T04:20:31.127Z,965.36
2018-09-17T04:21:31.096Z,965.38
2018-09-17T04:22:31.076Z,965.38
2018-09-17T04:23:31.054Z,965.40
2018-09-17T04:24:31.033Z,965.38
2018-09-17T04:25:31.012Z,965.40
2018-09-17T04:26:30.991Z,965.35
2018-09-17T04:27:30.970Z,965.39
2018-09-17T04:28:30.952Z,965.37
2018-09-17T04:29:30.929Z,965.39
2018-09-17T04:30:30.908Z,965.39
2018-09-17T04:31:30.902Z,965.39
2018-09-17T04:32:30.867Z,965.41
2018-09-17T04:33:30.845Z,965.45
2018-09-17T04:34:30.825Z,965.46
2018-09-17T04:35:30.805Z,965.49
2018-09-17T04:36:30.787Z,965.49
2018-09-17T04:37:30.765Z,965.51
2018-09-17T04:38:30.742Z,965.53
2018-09-17T04:39:30.723Z,965.51
2018-09-17T04:40:30.701Z,965.48
2018-09-17T04:41:30.680Z,965.51
2018-09-17T04:42:30.658Z,965.52
2018-09-17T04:43:30.638Z,965.51
2018-09-17T04:44:30.617Z,965.57
2018-09-17T04:45:30.597Z,965.58
2018-09-17T04:46:30.575Z,965.57
2018-09-17T04:47:30.555Z,965.53
2018-09-17T04:48:30.538Z,965.59
2018-09-17T04:49:30.513Z,965.58
2018-09-17T04:50:30.492Z,965.55
2018-09-17T04:51:30.472Z,965.55
2018-09-17T04:52:30.451Z,965.52
2018-09-17T04:53:30.429Z,965.47
2018-09-17T04:54:30.410Z,965.45
2018-09-17T04:55:30.388Z,965.50
2018-09-17T04:56:30.372Z,965.46
2018-09-17T04:57:30.346Z,965.45
2018-09-17T04:58:30.327Z,965.43
2018-09-17T04:59:30.305Z,965.40
2018-09-17T05:00:30.284Z,965.45
2018-09-17T05:01:30.264Z,965.44
2018-09-17T05:02:30.243Z,965.45
2018-09-17T05:03:30.222Z,965.44
2018-09-17T05:04:30.204Z,965.43
2018-09-17T05:05:30.179Z,965.45
2018-09-17T05:06:30.161Z,965.48
2018-09-17T05:07:30.139Z,965.49
2018-09-17T05:08:30.118Z,965.49
2018-09-17T05:09:30.097Z,965.51
2018-09-17T05:10:30.076Z,965.54
2018-09-17T05:11:30.055Z,965.56
2018-09-17T05:12:30.036Z,965.51
2018-09-17T05:13:30.124Z,965.51
2018-09-17T05:14:29.993Z,965.52
2018-09-17T05:15:29.973Z,965.52
2018-09-17T05:16:29.953Z,965.53
2018-09-17T05:17:29.930Z,965.54
2018-09-17T05:18:29.912Z,965.56
2018-09-17T05:19:29.888Z,965.59
2018-09-17T05:20:29.871Z,965.60
2018-09-17T05:21:29.848Z,965.65
2018-09-17T05:22:29.828Z,965.64
2018-09-17T05:23:29.806Z,965.70
2018-09-17T05:24:29.785Z,965.69
2018-09-17T05:25:29.763Z,965.73
2018-09-17T05:26:29.743Z,965.75
2018-09-17T05:27:29.723Z,965.77
2018-09-17T05:28:29.703Z,965.75
2018-09-17T05:29:29.682Z,965.74
2018-09-17T05:30:29.661Z,965.76
2018-09-17T05:31:29.641Z,965.76
2018-09-17T05:32:30.371Z,965.74
2018-09-17T05:33:29.598Z,965.71
2018-09-17T05:34:29.578Z,965.66
2018-09-17T05:35:29.559Z,965.68
2018-09-17T05:36:29.538Z,965.68
2018-09-17T05:37:29.516Z,965.67
2018-09-17T05:38:29.496Z,965.67
2018-09-17T05:39:29.475Z,965.70
2018-09-17T05:40:29.454Z,965.68
2018-09-17T05:41:29.433Z,965.69
2018-09-17T05:42:29.413Z,965.73
2018-09-17T05:43:30.143Z,965.73
2018-09-17T05:44:29.401Z,965.74
2018-09-17T05:45:29.353Z,965.75
2018-09-17T05:46:29.330Z,965.74
2018-09-17T05:47:29.311Z,965.75
2018-09-17T05:48:29.290Z,965.76
2018-09-17T05:49:29.269Z,965.75
2018-09-17T05:50:29.250Z,965.76
2018-09-17T05:51:29.228Z,965.74
2018-09-17T05:52:29.208Z,965.75
2018-09-17T05:53:29.186Z,965.71
2018-09-17T05:54:29.917Z,965.74
2018-09-17T05:55:29.149Z,965.75
2018-09-17T05:56:29.126Z,965.76
2018-09-17T05:57:29.109Z,965.77
2018-09-17T05:58:29.085Z,965.79
2018-09-17T05:59:29.083Z,965.78
2018-09-17T06:00:29.044Z,965.77
2018-09-17T06:01:29.024Z,965.79
2018-09-17T06:02:29.003Z,965.78
2018-09-17T06:03:28.982Z,965.79
2018-09-17T06:04:28.975Z,965.78
2018-09-17T06:05:28.945Z,965.83
2018-09-17T06:06:28.921Z,965.84
2018-09-17T06:07:28.901Z,965.84
2018-09-17T06:08:28.881Z,965.83
2018-09-17T06:09:28.860Z,965.84
2018-09-17T06:10:28.846Z,965.81
2018-09-17T06:11:28.820Z,965.83
2018-09-17T06:12:28.799Z,965.85
2018-09-17T06:13:28.782Z,965.85
2018-09-17T06:14:28.787Z,965.85
2018-09-17T06:15:28.737Z,965.84
2018-09-17T06:16:28.719Z,965.87
2018-09-17T06:17:28.760Z,965.87
2018-09-17T06:18:28.681Z,965.87
2018-09-17T06:19:28.657Z,965.89
2018-09-17T06:20:28.636Z,965.91
2018-09-17T06:21:28.615Z,965.90
2018-09-17T06:22:28.597Z,965.89
2018-09-17T06:23:28.578Z,965.88
2018-09-17T06:24:28.558Z,965.89
2018-09-17T06:25:28.535Z,965.92
2018-09-17T06:26:29.285Z,965.96
2018-09-17T06:27:28.496Z,965.96
2018-09-17T06:28:28.478Z,965.94
2018-09-17T06:29:28.455Z,965.96
2018-09-17T06:30:28.434Z,965.97
2018-09-17T06:31:28.416Z,965.98
2018-09-17T06:32:28.395Z,965.97
2018-09-17T06:33:28.374Z,966.00
2018-09-17T06:34:28.354Z,965.97
2018-09-17T06:35:28.334Z,965.97
2018-09-17T06:36:28.315Z,965.93
2018-09-17T06:37:28.299Z,965.93
2018-09-17T06:38:28.274Z,965.92
2018-09-17T06:39:28.254Z,965.92
2018-09-17T06:40:28.235Z,965.90
2018-09-17T06:41:28.223Z,965.87
2018-09-17T06:42:28.197Z,965.89
2018-09-17T06:43:28.175Z,965.87
2018-09-17T06:44:28.156Z,965.85
2018-09-17T06:45:28.134Z,965.83
2018-09-17T06:46:28.115Z,965.87
2018-09-17T06:47:28.095Z,965.87
2018-09-17T06:48:28.077Z,965.88
2018-09-17T06:49:28.056Z,965.87
2018-09-17T06:50:28.035Z,965.90
2018-09-17T06:51:28.084Z,965.88
2018-09-17T06:52:27.996Z,965.91
2018-09-17T06:53:27.977Z,965.86
2018-09-17T06:54:27.957Z,965.89
2018-09-17T06:55:27.937Z,965.88
2018-09-17T06:56:27.919Z,965.91
2018-09-17T06:57:27.897Z,965.92
2018-09-17T06:58:27.879Z,965.96
2018-09-17T06:59:27.859Z,965.95
2018-09-17T07:00:27.839Z,965.95
2018-09-17T07:01:27.819Z,965.97
2018-09-17T07:02:27.800Z,965.96
2018-09-17T07:03:27.782Z,965.93
2018-09-17T07:04:32.267Z,965.87
2018-09-17T07:05:27.741Z,965.87
2018-09-17T07:06:27.722Z,965.88
2018-09-17T07:07:27.704Z,965.82
2018-09-17T07:08:27.684Z,965.83
2018-09-17T07:09:27.664Z,965.83
2018-09-17T07:10:29.895Z,965.82
2018-09-17T07:11:27.624Z,965.81
2018-09-17T07:12:27.605Z,965.82
2018-09-17T07:13:27.585Z,965.80
2018-09-17T07:14:27.565Z,965.82
2018-09-17T07:15:27.548Z,965.86
2018-09-17T07:16:27.549Z,965.86
2018-09-17T07:17:27.509Z,965.89
2018-09-17T07:18:27.488Z,965.90
2018-09-17T07:19:27.469Z,965.89
2018-09-17T07:20:27.450Z,965.89
2018-09-17T07:21:27.430Z,965.93
2018-09-17T07:22:27.412Z,965.92
2018-09-17T07:23:27.392Z,965.94
2018-09-17T07:24:27.376Z,965.91
2018-09-17T07:25:27.353Z,965.90
2018-09-17T07:26:27.334Z,965.87
2018-09-17T07:27:28.817Z,965.84
2018-09-17T07:28:27.296Z,965.85
2018-09-17T07:29:27.278Z,965.84
2018-09-17T07:30:27.258Z,965.83
2018-09-17T07:31:27.238Z,965.81
2018-09-17T07:32:27.223Z,965.84
2018-09-17T07:33:28.701Z,965.81
2018-09-17T07:34:27.181Z,965.88
2018-09-17T07:35:27.162Z,965.82
2018-09-17T07:36:27.291Z,965.83
2018-09-17T07:37:27.123Z,965.84
2018-09-17T07:38:27.104Z,965.79
2018-09-17T07:39:28.587Z,965.80
2018-09-17T07:40:27.067Z,965.80
2018-09-17T07:41:27.046Z,965.80
2018-09-17T07:42:27.058Z,965.81
2018-09-17T07:43:27.011Z,965.79
2018-09-17T07:44:26.990Z,965.74
2018-09-17T07:45:29.973Z,965.78
2018-09-17T07:46:26.951Z,965.73
2018-09-17T07:47:26.932Z,965.75
2018-09-17T07:48:26.915Z,965.71
2018-09-17T07:49:26.895Z,965.71
2018-09-17T07:50:26.876Z,965.69
2018-09-17T07:51:27.608Z,965.72
2018-09-17T07:52:26.838Z,965.72
2018-09-17T07:53:26.819Z,965.69
2018-09-17T07:54:26.801Z,965.76
2018-09-17T07:55:26.782Z,965.76
2018-09-17T07:56:26.763Z,965.76
2018-09-17T07:57:26.743Z,965.79
2018-09-17T07:58:26.725Z,965.76
2018-09-17T07:59:26.706Z,965.77
2018-09-17T08:00:26.687Z,965.77
2018-09-17T08:01:26.669Z,965.73
2018-09-17T08:02:26.651Z,965.74
2018-09-17T08:03:26.633Z,965.73
2018-09-17T08:04:26.612Z,965.70
2018-09-17T08:05:26.593Z,965.72
2018-09-17T08:06:26.575Z,965.63
2018-09-17T08:07:26.557Z,965.63
2018-09-17T08:08:26.540Z,965.58
2018-09-17T08:09:26.519Z,965.61
2018-09-17T08:10:26.502Z,965.60
2018-09-17T08:11:26.483Z,965.61
2018-09-17T08:12:26.464Z,965.57
2018-09-17T08:13:26.445Z,965.62
2018-09-17T08:14:26.431Z,965.55
2018-09-17T08:15:26.411Z,965.56
2018-09-17T08:16:26.390Z,965.56
2018-09-17T08:17:27.122Z,965.56
2018-09-17T08:18:26.353Z,965.53
2018-09-17T08:19:26.338Z,965.50
2018-09-17T08:20:26.318Z,965.49
2018-09-17T08:21:26.298Z,965.47
2018-09-17T08:22:26.283Z,965.46
2018-09-17T08:23:26.263Z,965.45
2018-09-17T08:24:26.254Z,965.45
2018-09-17T08:25:26.256Z,965.47
2018-09-17T08:26:26.210Z,965.47
2018-09-17T08:27:26.188Z,965.48
2018-09-17T08:28:26.172Z,965.43
2018-09-17T08:29:26.152Z,965.42
2018-09-17T08:30:26.135Z,965.39
2018-09-17T08:31:26.196Z,965.38
2018-09-17T08:32:26.099Z,965.34
2018-09-17T08:33:27.582Z,965.31
2018-09-17T08:34:26.062Z,965.30
2018-09-17T08:35:26.045Z,965.27
2018-09-17T08:36:26.028Z,965.28
2018-09-17T08:37:26.008Z,965.24
2018-09-17T08:38:25.990Z,965.22
2018-09-17T08:39:27.473Z,965.24
2018-09-17T08:40:25.954Z,965.25
2018-09-17T08:41:25.936Z,965.22
2018-09-17T08:42:25.920Z,965.28
2018-09-17T08:43:25.901Z,965.27
2018-09-17T08:44:25.883Z,965.28
2018-09-17T08:45:25.912Z,965.29
2018-09-17T08:46:25.862Z,965.29
2018-09-17T08:47:25.829Z,965.24
2018-09-17T08:48:25.812Z,965.23
2018-09-17T08:49:25.794Z,965.23
2018-09-17T08:50:25.777Z,965.23
2018-09-17T08:51:25.758Z,965.24
2018-09-17T08:52:25.745Z,965.23
2018-09-17T08:53:25.722Z,965.22
2018-09-17T08:54:25.705Z,965.20
2018-09-17T08:55:25.687Z,965.20
2018-09-17T08:56:25.671Z,965.19
2018-09-17T08:57:25.651Z,965.15
2018-09-17T08:58:25.634Z,965.13
2018-09-17T08:59:25.618Z,965.16
2018-09-17T09:00:25.600Z,965.13
2018-09-17T09:01:25.581Z,965.05
2018-09-17T09:02:25.564Z,965.08
2018-09-17T09:03:25.546Z,965.11
2018-09-17T09:04:25.540Z,965.10
2018-09-17T09:05:25.552Z,965.09
2018-09-17T09:06:25.494Z,965.10
2018-09-17T09:07:25.477Z,965.10
2018-09-17T09:08:25.460Z,965.06
2018-09-17T09:09:25.443Z,965.07
2018-09-17T09:10:25.429Z,965.06
2018-09-17T09:11:25.417Z,965.06
2018-09-17T09:12:25.393Z,965.09
2018-09-17T09:13:25.372Z,965.12
2018-09-17T09:14:25.355Z,965.03
2018-09-17T09:15:25.339Z,965.07
2018-09-17T09:16:25.321Z,965.06
2018-09-17T09:17:25.333Z,965.08
2018-09-17T09:18:25.286Z,965.03
2018-09-17T09:19:25.269Z,965.06
2018-09-17T09:20:25.252Z,965.04
2018-09-17T09:21:25.236Z,965.05
2018-09-17T09:22:25.217Z,965.06
2018-09-17T09:23:25.201Z,965.03
2018-09-17T09:24:25.184Z,965.04
2018-09-17T09:25:25.165Z,965.03
2018-09-17T09:26:25.148Z,964.99
2018-09-17T09:27:25.132Z,964.99
2018-09-17T09:28:25.114Z,965.00
2018-09-17T09:29:25.097Z,964.98
2018-09-17T09:30:25.079Z,964.99
2018-09-17T09:31:25.062Z,964.99
2018-09-17T09:32:25.046Z,965.01
2018-09-17T09:33:25.027Z,965.02
2018-09-17T09:34:25.011Z,965.00
2018-09-17T09:35:24.993Z,965.02
2018-09-17T09:36:24.976Z,965.01
2018-09-17T09:37:27.962Z,964.96
2018-09-17T09:38:24.942Z,964.98
2018-09-17T09:39:24.930Z,964.99
2018-09-17T09:40:24.908Z,964.99
2018-09-17T09:41:24.893Z,964.97
2018-09-17T09:42:24.874Z,964.97
2018-09-17T09:43:24.860Z,965.00
2018-09-17T09:44:24.840Z,964.96
2018-09-17T09:45:24.823Z,964.95
2018-09-17T09:46:24.854Z,964.97
2018-09-17T09:47:24.789Z,964.95
2018-09-17T09:48:24.772Z,964.94
2018-09-17T09:49:24.755Z,964.98
2018-09-17T09:50:24.737Z,964.94
2018-09-17T09:51:24.721Z,964.91
2018-09-17T09:52:24.704Z,964.88
2018-09-17T09:53:24.686Z,964.90
2018-09-17T09:54:24.670Z,964.90
2018-09-17T09:55:24.653Z,964.89
2018-09-17T09:56:24.636Z,964.88
2018-09-17T09:57:24.619Z,964.88
2018-09-17T09:58:24.603Z,964.89
2018-09-17T09:59:24.610Z,964.88
2018-09-17T10:00:24.569Z,964.87
2018-09-17T10:01:24.552Z,964.91
2018-09-17T10:02:24.535Z,964.89
2018-09-17T10:03:24.518Z,964.87
2018-09-17T10:04:24.502Z,964.86
2018-09-17T10:05:24.484Z,964.89
2018-09-17T10:06:24.468Z,964.85
2018-09-17T10:07:24.451Z,964.83
2018-09-17T10:08:24.434Z,964.81
2018-09-17T10:09:24.417Z,964.85
2018-09-17T10:10:24.402Z,964.82
2018-09-17T10:11:24.384Z,964.78
2018-09-17T10:12:24.368Z,964.81
2018-09-17T10:13:24.351Z,964.73
2018-09-17T10:14:24.335Z,964.74
2018-09-17T10:15:24.318Z,964.73
2018-09-17T10:16:24.305Z,964.68
2018-09-17T10:17:24.284Z,964.74
2018-09-17T10:18:24.267Z,964.67
2018-09-17T10:19:24.303Z,964.68
2018-09-17T10:20:24.986Z,964.66
2018-09-17T10:21:24.217Z,964.64
2018-09-17T10:22:24.202Z,964.68
2018-09-17T10:23:24.184Z,964.61
2018-09-17T10:24:24.169Z,964.62
2018-09-17T10:25:24.150Z,964.63
2018-09-17T10:26:24.134Z,964.68
2018-09-17T10:27:24.118Z,964.63
2018-09-17T10:28:24.102Z,964.63
2018-09-17T10:29:24.085Z,964.63
2018-09-17T10:30:24.070Z,964.66
2018-09-17T10:31:24.052Z,964.59
2018-09-17T10:32:24.036Z,964.54
2018-09-17T10:33:24.019Z,964.56
2018-09-17T10:34:24.002Z,964.53
2018-09-17T10:35:23.986Z,964.49
2018-09-17T10:36:23.970Z,964.49
2018-09-17T10:37:23.952Z,964.44
2018-09-17T10:38:23.939Z,964.39
2018-09-17T10:39:23.951Z,964.44
2018-09-17T10:40:23.905Z,964.42
2018-09-17T10:41:26.140Z,964.40
2018-09-17T10:42:23.871Z,964.37
2018-09-17T10:43:23.855Z,964.40
2018-09-17T10:44:23.841Z,964.36
2018-09-17T10:45:23.822Z,964.32
2018-09-17T10:46:23.807Z,964.34
2018-09-17T10:47:23.791Z,964.34
2018-09-17T10:48:23.775Z,964.33
2018-09-17T10:49:23.761Z,964.34
2018-09-17T10:50:23.741Z,964.32
2018-09-17T10:51:23.729Z,964.33
2018-09-17T10:52:23.711Z,964.28
2018-09-17T10:53:23.694Z,964.32
2018-09-17T10:54:23.677Z,964.28
2018-09-17T10:55:23.662Z,964.26
2018-09-17T10:56:23.648Z,964.29
2018-09-17T10:57:23.657Z,964.26
2018-09-17T10:58:23.614Z,964.28
2018-09-17T10:59:23.597Z,964.27
2018-09-17T11:00:23.584Z,964.25
2018-09-17T11:01:23.567Z,964.24
2018-09-17T11:02:23.549Z,964.27
2018-09-17T11:03:23.533Z,964.26
2018-09-17T11:04:23.521Z,964.26
2018-09-17T11:05:23.502Z,964.23
2018-09-17T11:06:23.486Z,964.18
2018-09-17T11:07:23.487Z,964.20
2018-09-17T11:08:23.492Z,964.22
2018-09-17T11:09:23.437Z,964.24
2018-09-17T11:10:23.423Z,964.19
2018-09-17T11:11:23.407Z,964.18
2018-09-17T11:12:23.392Z,964.13
2018-09-17T11:13:23.374Z,964.11
2018-09-17T11:14:23.357Z,964.15
2018-09-17T11:15:23.342Z,964.16
2018-09-17T11:16:23.327Z,964.13
2018-09-17T11:17:23.363Z,964.17
2018-09-17T11:18:23.295Z,964.17
2018-09-17T11:19:23.281Z,964.14
2018-09-17T11:20:24.015Z,964.10
2018-09-17T11:21:23.248Z,964.10
2018-09-17T11:22:23.234Z,964.13
2018-09-17T11:23:23.218Z,964.11
2018-09-17T11:24:23.202Z,964.12
2018-09-17T11:25:23.185Z,964.14
2018-09-17T11:26:23.169Z,964.16
2018-09-17T11:27:23.154Z,964.16
2018-09-17T11:28:23.141Z,964.15
2018-09-17T11:29:23.122Z,964.13
2018-09-17T11:30:23.107Z,964.09
2018-09-17T11:31:23.128Z,964.11
2018-09-17T11:32:23.077Z,964.13
2018-09-17T11:33:23.064Z,964.03
2018-09-17T11:34:23.046Z,964.04
2018-09-17T11:35:23.030Z,964.03
2018-09-17T11:36:23.014Z,964.06
2018-09-17T11:37:22.998Z,964.04
2018-09-17T11:38:22.983Z,964.04
2018-09-17T11:39:22.967Z,964.05
2018-09-17T11:40:22.953Z,964.01
2018-09-17T11:41:22.939Z,963.99
2018-09-17T11:42:24.423Z,964.04
2018-09-17T11:43:22.907Z,963.98
2018-09-17T11:44:22.892Z,964.00
2018-09-17T11:45:22.876Z,964.02
2018-09-17T11:46:22.860Z,964.00
2018-09-17T11:47:22.846Z,964.02
2018-09-17T11:48:24.374Z,963.97
2018-09-17T11:49:22.814Z,964.02
2018-09-17T11:50:22.798Z,964.01
2018-09-17T11:51:22.783Z,963.98
2018-09-17T11:52:22.768Z,963.95
2018-09-17T11:53:22.752Z,963.93
2018-09-17T11:54:24.239Z,963.92
2018-09-17T11:55:22.723Z,963.93
2018-09-17T11:56:22.706Z,963.93
2018-09-17T11:57:22.691Z,963.88
2018-09-17T11:58:22.675Z,963.87
2018-09-17T11:59:22.660Z,963.83
2018-09-17T12:00:23.397Z,963.85
2018-09-17T12:01:22.629Z,963.81
2018-09-17T12:02:22.614Z,963.82
2018-09-17T12:03:22.602Z,963.84
2018-09-17T12:04:22.585Z,963.80
2018-09-17T12:05:22.569Z,963.78
2018-09-17T12:06:22.554Z,963.79
2018-09-17T12:07:22.550Z,963.76
2018-09-17T12:08:22.523Z,963.73
2018-09-17T12:09:22.522Z,963.75
2018-09-17T12:10:22.492Z,963.78
2018-09-17T12:11:24.759Z,963.80
2018-09-17T12:12:22.462Z,963.77
2018-09-17T12:13:22.447Z,963.75
2018-09-17T12:14:22.432Z,963.70
2018-09-17T12:15:22.419Z,963.73
2018-09-17T12:16:22.403Z,963.69
2018-09-17T12:17:22.386Z,963.76
2018-09-17T12:18:22.373Z,963.71
2018-09-17T12:19:22.359Z,963.67
2018-09-17T12:20:22.343Z,963.71
2018-09-17T12:21:22.327Z,963.71
2018-09-17T12:22:22.311Z,963.71
2018-09-17T12:23:22.297Z,963.71
2018-09-17T12:24:22.282Z,963.73
2018-09-17T12:25:22.266Z,963.73
2018-09-17T12:26:22.252Z,963.70
2018-09-17T12:27:22.236Z,963.73
2018-09-17T12:28:22.223Z,963.67